Time;durP1;ratioP1;P1;durP2;ratioP2;P2;SDS_P1;SDS_P2;PMS_P1;PMS_P2;Temp;Humidity;BMP_temperature;BMP_pressure;BME280_temperature;BME280_humidity;BME280_pressure;Samples;Min_cycle;Max_cycle;Signal;HPM_P1;HPM_P2
2023/10/02 00:01:51;;;;;;;22.02;12.82;;;16.70;99.90;;;;;;5065365;28;20246;-73
2023/10/02 00:04:17;;;;;;;21.92;13.50;;;16.70;99.90;;;;;;5064051;28;20525;-73
2023/10/02 00:06:47;;;;;;;23.52;14.00;;;16.70;99.90;;;;;;5071478;28;20041;-73
2023/10/02 00:09:14;;;;;;;23.20;13.27;;;16.70;99.90;;;;;;5070160;28;20093;-73
2023/10/02 00:11:40;;;;;;;19.75;12.85;;;16.60;99.90;;;;;;5076437;28;20041;-73
2023/10/02 00:14:23;;;;;;;23.60;14.27;;;16.60;99.90;;;;;;5066899;28;20058;-74
2023/10/02 00:17:00;;;;;;;21.73;13.52;;;16.50;99.90;;;;;;5053218;28;20440;-74
2023/10/02 00:19:28;;;;;;;16.95;10.63;;;16.50;99.90;;;;;;5067448;28;20146;-73
2023/10/02 00:21:59;;;;;;;17.58;11.25;;;16.40;99.90;;;;;;5074228;28;20531;-73
2023/10/02 00:24:26;;;;;;;21.27;12.80;;;16.40;99.90;;;;;;5074404;28;20048;-73
2023/10/02 00:26:57;;;;;;;19.50;12.80;;;16.40;99.90;;;;;;5073552;28;20500;-73
2023/10/02 00:29:26;;;;;;;20.52;12.80;;;16.40;99.90;;;;;;5074363;28;20053;-74
2023/10/02 00:31:53;;;;;;;22.65;13.55;;;16.40;99.90;;;;;;5068016;28;20052;-73
2023/10/02 00:34:31;;;;;;;20.25;12.93;;;16.30;99.90;;;;;;5070146;28;20384;-73
2023/10/02 00:37:05;;;;;;;21.70;13.65;;;16.30;99.90;;;;;;5067123;28;20068;-73
2023/10/02 00:39:35;;;;;;;20.50;12.77;;;16.20;99.90;;;;;;5066252;28;20123;-73
2023/10/02 00:42:24;;;;;;;21.17;12.45;;;16.20;99.90;;;;;;5070675;28;20079;-73
2023/10/02 00:45:02;;;;;;;23.83;14.45;;;16.20;99.90;;;;;;5072873;28;20049;-73
2023/10/02 00:47:47;;;;;;;24.75;13.88;;;16.20;99.90;;;;;;5048074;28;20052;-73
2023/10/02 00:50:18;;;;;;;27.67;14.82;;;16.20;99.90;;;;;;5069845;28;20530;-73
2023/10/02 00:52:54;;;;;;;23.88;14.65;;;16.20;99.90;;;;;;5065960;28;20059;-73
2023/10/02 00:55:24;;;;;;;23.00;13.88;;;16.20;99.90;;;;;;5069076;28;20071;-74
2023/10/02 00:57:52;;;;;;;26.30;15.05;;;16.20;99.90;;;;;;5067726;28;20044;-73
2023/10/02 01:00:30;;;;;;;23.75;14.45;;;16.20;99.90;;;;;;5063866;28;20036;-73
2023/10/02 01:02:58;;;;;;;22.98;14.30;;;16.30;99.90;;;;;;5072620;28;20074;-74
2023/10/02 01:05:41;;;;;;;23.50;13.82;;;16.30;99.90;;;;;;5063645;28;20072;-73
2023/10/02 01:08:23;;;;;;;22.13;14.15;;;16.30;99.90;;;;;;5064403;28;20064;-73
2023/10/02 01:10:56;;;;;;;25.67;13.90;;;16.30;99.90;;;;;;5072717;28;20117;-73
2023/10/02 01:13:28;;;;;;;19.63;13.13;;;16.40;99.90;;;;;;5072613;28;20068;-73
2023/10/02 01:16:18;;;;;;;23.60;14.00;;;16.40;99.90;;;;;;5067239;28;20049;-74
2023/10/02 01:18:48;;;;;;;21.38;13.23;;;16.40;99.90;;;;;;5071745;28;20045;-74
2023/10/02 01:21:14;;;;;;;26.15;14.98;;;16.50;99.90;;;;;;5060646;28;20525;-74
2023/10/02 01:24:17;;;;;;;25.05;15.15;;;16.50;99.90;;;;;;5071141;28;20072;-73
2023/10/02 01:26:37;;;;;;;24.13;14.75;;;16.50;99.90;;;;;;5066362;28;20055;-74
2023/10/02 01:29:05;;;;;;;24.92;14.40;;;16.50;99.90;;;;;;5074608;28;20068;-73
2023/10/02 01:31:31;;;;;;;25.08;14.63;;;16.50;99.90;;;;;;5066547;28;20047;-74
2023/10/02 01:34:02;;;;;;;21.15;13.27;;;16.60;99.90;;;;;;5061165;28;20127;-74
2023/10/02 01:36:31;;;;;;;21.13;14.63;;;16.60;99.90;;;;;;5073517;28;20053;-74
2023/10/02 01:39:10;;;;;;;25.20;15.30;;;16.60;99.90;;;;;;5065862;28;20102;-74
2023/10/02 01:41:36;;;;;;;27.00;15.93;;;16.60;99.90;;;;;;5081166;28;20040;-74
2023/10/02 01:44:07;;;;;;;27.42;15.30;;;16.60;99.90;;;;;;5074308;28;20063;-74
2023/10/02 01:46:36;;;;;;;27.83;16.48;;;16.70;99.90;;;;;;5076905;28;20052;-74
2023/10/02 01:49:02;;;;;;;23.00;15.52;;;16.60;99.90;;;;;;5073320;28;20053;-74
2023/10/02 01:51:31;;;;;;;25.73;16.00;;;16.70;99.90;;;;;;5073248;28;20033;-74
2023/10/02 01:54:03;;;;;;;26.30;15.73;;;16.70;99.90;;;;;;5070913;28;20052;-74
2023/10/02 01:56:30;;;;;;;;;;;16.70;99.90;;;;;;5071433;28;20045;-74
2023/10/02 01:59:45;;;;;;;26.63;15.90;;;16.70;99.90;;;;;;5071822;28;19931;-74
2023/10/02 02:01:51;;;;;;;28.13;17.05;;;16.70;99.90;;;;;;5071617;28;20111;-74
2023/10/02 02:04:27;;;;;;;28.20;16.42;;;16.70;99.90;;;;;;5076050;28;20506;-74
2023/10/02 02:06:55;;;;;;;28.80;16.48;;;16.70;99.90;;;;;;5079422;28;20048;-74
2023/10/02 02:09:26;;;;;;;25.70;16.38;;;16.70;99.90;;;;;;5064543;28;20041;-74
2023/10/02 02:12:07;;;;;;;30.08;17.25;;;16.70;99.90;;;;;;5078037;28;20040;-74
2023/10/02 02:14:49;;;;;;;26.80;15.82;;;16.70;99.90;;;;;;5072056;28;20374;-74
2023/10/02 02:17:22;;;;;;;29.58;16.83;;;16.70;99.90;;;;;;5064340;28;20155;-74
2023/10/02 02:19:48;;;;;;;25.27;16.25;;;16.70;99.90;;;;;;5073382;28;20057;-74
2023/10/02 02:22:19;;;;;;;30.05;17.05;;;16.80;99.90;;;;;;5074710;28;20104;-74
2023/10/02 02:24:47;;;;;;;27.23;16.30;;;16.80;99.90;;;;;;5056981;28;20072;-74
2023/10/02 02:27:14;;;;;;;27.45;15.90;;;16.80;99.90;;;;;;5076896;28;20052;-73
2023/10/02 02:29:39;;;;;;;27.45;16.20;;;16.80;99.90;;;;;;5064736;28;20076;-74
2023/10/02 02:32:08;;;;;;;29.65;16.40;;;16.80;99.90;;;;;;5059863;28;20080;-74
2023/10/02 02:34:33;;;;;;;28.88;16.92;;;16.80;99.90;;;;;;5071694;28;20571;-73
2023/10/02 02:36:59;;;;;;;28.23;15.93;;;16.80;99.90;;;;;;5064487;28;20085;-73
2023/10/02 02:39:27;;;;;;;26.17;16.50;;;16.80;99.90;;;;;;5067561;28;20063;-73
2023/10/02 02:44:44;;;;;;;26.13;16.05;;;16.80;99.90;;;;;;5072607;28;20061;-74
2023/10/02 02:47:12;;;;;;;27.58;16.05;;;16.80;99.90;;;;;;5066118;28;20057;-73
2023/10/02 02:49:53;;;;;;;26.23;16.00;;;16.80;99.90;;;;;;5070286;28;20125;-73
2023/10/02 02:52:32;;;;;;;29.67;16.65;;;16.80;99.90;;;;;;5050058;28;20424;-73
2023/10/02 02:55:14;;;;;;;29.55;17.00;;;16.80;99.90;;;;;;5067712;28;20620;-74
2023/10/02 02:57:45;;;;;;;28.40;16.23;;;16.80;99.90;;;;;;5072859;28;20049;-73
2023/10/02 03:00:29;;;;;;;26.57;16.23;;;16.70;99.90;;;;;;5071791;28;20047;-73
2023/10/02 03:02:57;;;;;;;27.45;16.33;;;16.70;99.90;;;;;;5076764;28;20049;-72
2023/10/02 03:05:37;;;;;;;26.45;16.33;;;16.70;99.90;;;;;;5072014;28;20051;-73
2023/10/02 03:08:05;;;;;;;29.73;16.63;;;16.70;99.90;;;;;;5077294;28;20074;-73
2023/10/02 03:10:36;;;;;;;26.30;15.57;;;16.70;99.90;;;;;;5074304;28;20044;-72
2023/10/02 03:13:03;;;;;;;28.25;16.23;;;16.70;99.90;;;;;;5075590;28;20048;-73
2023/10/02 03:15:47;;;;;;;27.65;16.48;;;16.70;99.90;;;;;;5071162;28;20450;-73
2023/10/02 03:18:23;;;;;;;28.10;16.13;;;16.70;99.90;;;;;;5047178;28;20045;-73
2023/10/02 03:20:56;;;;;;;29.98;15.60;;;16.70;99.90;;;;;;5070126;28;20033;-73
2023/10/02 03:23:23;;;;;;;27.02;16.75;;;16.60;99.90;;;;;;5072646;28;20060;-73
2023/10/02 03:25:55;;;;;;;27.42;16.70;;;16.60;99.90;;;;;;5069095;28;20041;-72
2023/10/02 03:28:32;;;;;;;31.15;17.88;;;16.60;99.90;;;;;;5072226;28;20160;-74
2023/10/02 03:31:01;;;;;;;27.08;16.73;;;16.70;99.90;;;;;;5067794;28;20125;-73
2023/10/02 03:33:31;;;;;;;27.70;17.23;;;16.60;99.90;;;;;;5074198;28;20420;-73
2023/10/02 03:35:58;;;;;;;28.88;16.75;;;16.60;99.90;;;;;;5075695;28;20040;-73
2023/10/02 03:38:25;;;;;;;34.65;16.48;;;16.60;99.90;;;;;;5069879;28;20503;-73
2023/10/02 03:40:58;;;;;;;26.70;15.80;;;16.60;99.90;;;;;;5074160;28;20050;-73
2023/10/02 03:43:42;;;;;;;28.75;17.20;;;16.60;99.90;;;;;;5063568;28;20444;-73
2023/10/02 03:46:13;;;;;;;30.75;17.25;;;16.60;99.90;;;;;;5073874;28;20040;-73
2023/10/02 03:48:39;;;;;;;27.75;16.27;;;16.60;99.90;;;;;;5070198;28;20075;-74
2023/10/02 03:51:08;;;;;;;25.45;16.05;;;16.60;99.90;;;;;;5069929;28;20037;-74
2023/10/02 03:53:35;;;;;;;29.38;16.73;;;16.60;99.90;;;;;;5071150;28;20050;-74
2023/10/02 03:58:52;;;;;;;27.45;16.67;;;16.50;99.90;;;;;;5074816;28;20045;-73
2023/10/02 04:01:31;;;;;;;29.13;16.05;;;16.50;99.90;;;;;;5066523;28;20045;-73
2023/10/02 04:06:42;;;;;;;28.17;15.45;;;16.50;99.90;;;;;;5073933;28;20515;-73
2023/10/02 04:09:13;;;;;;;30.63;16.40;;;16.40;99.90;;;;;;5064880;28;20044;-73
2023/10/02 04:11:40;;;;;;;26.83;15.95;;;16.40;99.90;;;;;;5069098;28;20048;-74
2023/10/02 04:14:18;;;;;;;28.98;16.55;;;16.40;99.90;;;;;;5075080;28;20060;-74
2023/10/02 04:16:48;;;;;;;28.45;16.38;;;16.30;99.90;;;;;;5066120;28;20083;-75
2023/10/02 04:19:16;;;;;;;34.40;17.73;;;16.30;99.90;;;;;;5065245;28;21072;-73
2023/10/02 04:21:45;;;;;;;30.40;16.83;;;16.30;99.90;;;;;;5049725;28;20080;-73
2023/10/02 04:24:11;;;;;;;27.98;17.42;;;16.30;99.90;;;;;;5074155;28;20048;-74
2023/10/02 04:26:37;;;;;;;30.15;17.63;;;16.30;99.90;;;;;;5066411;28;20496;-73
2023/10/02 04:29:14;;;;;;;25.98;16.35;;;16.20;99.90;;;;;;5063482;28;20057;-73
2023/10/02 04:31:44;;;;;;;32.15;17.58;;;16.30;99.90;;;;;;5059064;28;20040;-74
2023/10/02 04:36:49;;;;;;;27.10;16.58;;;16.30;99.90;;;;;;5076276;28;20380;-74
2023/10/02 04:42:11;;;;;;;28.80;17.45;;;16.20;99.90;;;;;;5059862;28;20076;-74
2023/10/02 04:44:44;;;;;;;28.65;16.98;;;16.20;99.90;;;;;;5066955;28;20072;-73
2023/10/02 04:47:20;;;;;;;30.92;18.10;;;16.10;99.90;;;;;;5062271;28;20108;-74
2023/10/02 04:55:31;;;;;;;31.63;18.00;;;16.00;99.90;;;;;;5066316;28;20499;-74
2023/10/02 05:01:07;;;;;;;30.77;18.23;;;16.00;99.90;;;;;;5062848;28;20041;-71
2023/10/02 05:03:26;;;;;;;32.53;18.20;;;16.00;99.90;;;;;;5069948;28;20523;-73
2023/10/02 05:05:58;;;;;;;27.70;17.58;;;16.00;99.90;;;;;;5066122;28;20037;-73
2023/10/02 05:08:40;;;;;;;32.25;18.35;;;16.00;99.90;;;;;;5068317;28;20461;-73
2023/10/02 05:11:08;;;;;;;32.10;19.17;;;15.90;99.90;;;;;;5062560;28;20045;-73
2023/10/02 05:16:26;;;;;;;32.72;19.70;;;15.90;99.90;;;;;;5074219;28;20044;-73
2023/10/02 05:18:53;;;;;;;31.10;18.73;;;15.90;99.90;;;;;;5074548;28;20132;-73
2023/10/02 05:21:19;;;;;;;32.67;19.02;;;15.80;99.90;;;;;;5068989;28;20108;-73
2023/10/02 05:24:00;;;;;;;33.97;20.02;;;15.80;99.90;;;;;;5072843;28;20072;-73
2023/10/02 05:26:44;;;;;;;30.27;19.98;;;15.80;99.90;;;;;;5061745;28;20487;-73
2023/10/02 05:29:17;;;;;;;34.85;19.48;;;15.70;99.90;;;;;;5073144;28;20055;-73
2023/10/02 05:31:49;;;;;;;33.20;19.45;;;15.70;99.90;;;;;;5069709;28;20041;-73
2023/10/02 05:34:21;;;;;;;29.70;18.70;;;15.70;99.90;;;;;;5065186;28;20037;-74
2023/10/02 05:39:39;;;;;;;32.33;18.73;;;15.70;99.90;;;;;;5064555;28;20150;-74
2023/10/02 05:42:05;;;;;;;32.60;19.48;;;15.60;99.90;;;;;;5044767;28;20037;-73
2023/10/02 05:44:35;;;;;;;34.95;20.60;;;15.70;99.90;;;;;;5070778;28;20059;-72
2023/10/02 05:47:05;;;;;;;32.60;19.38;;;15.70;99.90;;;;;;5066134;28;20051;-73
2023/10/02 05:49:32;;;;;;;31.05;17.92;;;15.60;99.90;;;;;;5068575;28;20052;-73
2023/10/02 05:52:00;;;;;;;33.30;18.65;;;15.70;99.90;;;;;;5066599;28;20051;-73
2023/10/02 05:54:29;;;;;;;29.67;18.10;;;15.60;99.90;;;;;;5070311;28;20044;-74
2023/10/02 05:57:12;;;;;;;28.90;18.05;;;15.60;99.90;;;;;;5066508;28;20123;-74
2023/10/02 05:59:54;;;;;;;30.13;19.25;;;15.60;99.90;;;;;;5063768;28;20045;-73
2023/10/02 06:02:23;;;;;;;30.77;17.88;;;15.60;99.90;;;;;;5071256;28;20236;-74
2023/10/02 06:04:53;;;;;;;31.42;19.15;;;15.50;99.90;;;;;;5046060;28;20080;-73
2023/10/02 06:10:08;;;;;;;29.70;18.65;;;15.50;99.90;;;;;;5078491;28;20061;-74
2023/10/02 06:12:35;;;;;;;33.92;19.63;;;15.50;99.90;;;;;;5076465;28;20165;-74
2023/10/02 06:15:09;;;;;;;30.92;18.58;;;15.60;99.90;;;;;;5075443;28;20047;-73
2023/10/02 06:17:35;;;;;;;31.05;18.70;;;15.60;99.90;;;;;;5064299;28;20045;-73
2023/10/02 06:20:01;;;;;;;31.15;18.17;;;15.60;99.90;;;;;;5072428;28;20047;-73
2023/10/02 06:22:27;;;;;;;32.80;18.88;;;15.70;99.90;;;;;;5064620;28;20056;-73
2023/10/02 06:24:53;;;;;;;32.80;19.40;;;15.70;99.90;;;;;;5066037;28;20154;-73
2023/10/02 06:27:22;;;;;;;32.42;18.77;;;15.70;99.90;;;;;;5074446;28;20048;-73
2023/10/02 06:29:50;;;;;;;29.77;18.77;;;15.70;99.90;;;;;;5070539;28;20048;-73
2023/10/02 06:32:19;;;;;;;30.42;18.58;;;15.70;99.90;;;;;;5068098;28;20040;-73
2023/10/02 06:34:50;;;;;;;32.70;18.98;;;15.70;99.90;;;;;;5065916;28;20546;-74
2023/10/02 06:37:25;;;;;;;32.72;18.30;;;15.80;99.90;;;;;;5072210;28;20056;-73
2023/10/02 06:42:58;;;;;;;29.17;18.05;;;15.90;99.90;;;;;;5057477;28;20059;-73
2023/10/02 06:45:26;;;;;;;31.48;18.85;;;15.90;99.90;;;;;;5067858;28;20052;-73
2023/10/02 06:47:54;;;;;;;34.35;18.13;;;16.00;99.90;;;;;;5075267;28;20384;-73
2023/10/02 06:50:30;;;;;;;32.95;18.73;;;16.10;99.90;;;;;;5079819;28;20041;-74
2023/10/02 06:52:58;;;;;;;30.92;18.08;;;16.10;99.90;;;;;;5065488;28;20060;-73
2023/10/02 06:55:29;;;;;;;29.25;18.05;;;16.20;99.90;;;;;;5069389;28;20032;-74
2023/10/02 06:57:56;;;;;;;32.97;18.45;;;16.20;99.90;;;;;;5068342;28;20123;-74
2023/10/02 07:00:25;;;;;;;29.15;18.17;;;16.20;99.90;;;;;;5074276;28;20089;-74
2023/10/02 07:02:57;;;;;;;29.10;18.30;;;16.30;99.90;;;;;;5072081;28;20586;-74
2023/10/02 07:05:32;;;;;;;27.27;16.88;;;16.30;99.90;;;;;;5073540;28;20052;-73
2023/10/02 07:08:18;;;;;;;32.38;17.15;;;16.30;99.90;;;;;;5071532;28;20040;-74
2023/10/02 07:10:44;;;;;;;32.45;17.88;;;16.30;99.90;;;;;;5069927;28;20040;-74
2023/10/02 07:13:20;;;;;;;28.15;17.52;;;16.40;99.90;;;;;;5073677;28;20507;-73
2023/10/02 07:15:55;;;;;;;33.55;17.98;;;16.40;99.90;;;;;;5067222;28;20044;-73
2023/10/02 07:18:37;;;;;;;28.42;16.75;;;16.40;99.90;;;;;;5041937;28;20052;-73
2023/10/02 07:21:07;;;;;;;;;;;16.50;99.90;;;;;;5077159;28;20052;-73
2023/10/02 07:23:37;;;;;;;32.97;18.35;;;16.50;99.90;;;;;;5069300;28;19924;-73
2023/10/02 07:26:13;;;;;;;32.15;17.73;;;16.60;99.90;;;;;;5070691;28;20056;-73
2023/10/02 07:28:50;;;;;;;29.45;17.63;;;16.60;99.90;;;;;;5066716;28;20532;-73
2023/10/02 07:31:17;;;;;;;27.90;17.38;;;16.70;99.90;;;;;;5067380;28;20087;-74
2023/10/02 07:33:44;;;;;;;31.35;18.38;;;16.70;99.90;;;;;;5065364;28;20049;-73
2023/10/02 07:36:14;;;;;;;28.90;17.55;;;16.70;99.90;;;;;;5067780;28;20033;-73
2023/10/02 07:38:46;;;;;;;29.17;17.58;;;16.80;99.90;;;;;;5069027;28;20110;-73
2023/10/02 07:41:23;;;;;;;32.65;17.65;;;16.80;99.90;;;;;;5070285;28;20509;-73
2023/10/02 07:43:54;;;;;;;34.90;18.50;;;16.80;99.90;;;;;;5060411;28;20470;-73
2023/10/02 07:46:21;;;;;;;30.75;18.30;;;16.80;99.90;;;;;;5067355;28;20048;-74
2023/10/02 07:48:57;;;;;;;32.83;18.05;;;16.90;99.90;;;;;;5077331;28;20076;-73
2023/10/02 07:51:32;;;;;;;31.25;17.45;;;17.00;99.90;;;;;;5055165;28;20108;-73
2023/10/02 07:54:06;;;;;;;32.85;18.48;;;17.00;99.90;;;;;;5079258;28;20453;-73
2023/10/02 07:56:33;;;;;;;32.50;18.10;;;17.10;99.90;;;;;;5069385;28;20055;-73
2023/10/02 07:59:07;;;;;;;30.02;17.90;;;17.20;99.90;;;;;;5062274;28;20067;-74
2023/10/02 08:01:33;;;;;;;31.25;17.50;;;17.30;99.90;;;;;;5076937;28;20049;-74
2023/10/02 08:04:01;;;;;;;32.30;17.88;;;17.30;99.90;;;;;;5069142;28;20069;-73
2023/10/02 08:06:33;;;;;;;31.98;18.52;;;17.40;99.90;;;;;;5076199;28;20052;-73
2023/10/02 08:11:52;;;;;;;26.55;16.98;;;17.50;99.90;;;;;;5073813;28;19921;-73
2023/10/02 08:14:38;;;;;;;32.50;17.83;;;17.60;99.90;;;;;;5061563;28;20087;-73
2023/10/02 08:17:27;;;;;;;30.90;18.13;;;17.60;99.90;;;;;;5062896;28;20044;-73
2023/10/02 08:19:56;;;;;;;31.63;19.25;;;17.70;99.90;;;;;;5066420;28;20049;-73
2023/10/02 08:22:35;;;;;;;32.13;18.65;;;17.70;99.90;;;;;;5070082;28;20098;-73
2023/10/02 08:25:13;;;;;;;34.58;17.67;;;17.70;99.90;;;;;;5071584;28;20108;-73
2023/10/02 08:27:58;;;;;;;30.55;17.58;;;17.80;99.90;;;;;;5067295;28;20053;-74
2023/10/02 08:30:31;;;;;;;31.23;17.90;;;17.90;99.90;;;;;;5058351;28;20117;-73
2023/10/02 08:33:07;;;;;;;30.58;18.77;;;18.00;99.90;;;;;;5062454;28;20683;-74
2023/10/02 08:35:33;;;;;;;32.45;18.95;;;18.00;99.90;;;;;;5074105;28;20048;-72
2023/10/02 08:37:59;;;;;;;32.05;18.63;;;18.10;99.90;;;;;;5061677;28;20053;-73
2023/10/02 08:40:26;;;;;;;35.15;18.73;;;18.20;99.90;;;;;;5062267;28;20072;-73
2023/10/02 08:42:53;;;;;;;31.23;17.92;;;18.30;99.90;;;;;;5063520;28;20052;-73
2023/10/02 08:45:22;;;;;;;29.17;18.77;;;18.40;99.90;;;;;;5072606;28;20063;-73
2023/10/02 08:47:48;;;;;;;32.17;17.42;;;18.50;99.90;;;;;;5063607;28;20121;-73
2023/10/02 08:50:15;;;;;;;33.50;18.27;;;18.60;99.90;;;;;;5067511;28;20515;-73
2023/10/02 08:52:49;;;;;;;33.75;18.52;;;18.60;99.90;;;;;;4883837;22;20058;-83
2023/10/02 08:58:16;;;;;;;28.75;18.65;;;18.80;99.90;;;;;;4993606;28;20346;-83
2023/10/02 09:03:45;;;;;;;;;;;18.90;99.90;;;;;;5015940;28;20041;-83
2023/10/02 09:06:25;;;;;;;29.45;18.73;;;19.00;99.90;;;;;;4995937;28;19918;-83
2023/10/02 09:11:36;;;;;;;33.70;18.95;;;19.10;99.90;;;;;;5002823;28;20076;-83
2023/10/02 09:16:47;;;;;;;;;;;19.30;99.90;;;;;;5014778;28;20053;-83
2023/10/02 09:19:30;;;;;;;32.33;18.80;;;19.30;99.90;;;;;;4994666;28;19922;-82
2023/10/02 09:22:06;;;;;;;33.90;20.05;;;19.30;99.90;;;;;;4994431;28;20454;-82
2023/10/02 09:24:36;;;;;;;33.25;19.55;;;19.30;99.90;;;;;;4992092;28;20033;-83
2023/10/02 09:27:25;;;;;;;33.40;19.23;;;19.30;99.90;;;;;;5012426;28;20050;-84
2023/10/02 09:30:15;;;;;;;36.75;19.83;;;19.30;99.90;;;;;;4990835;28;20048;-82
2023/10/02 09:32:49;;;;;;;33.30;20.65;;;19.40;99.90;;;;;;5008640;23;20141;-84
2023/10/02 09:35:21;;;;;;;31.98;18.65;;;19.30;99.90;;;;;;4979458;28;20065;-83
2023/10/02 09:37:55;;;;;;;36.63;20.55;;;19.40;99.90;;;;;;4977539;28;20093;-83
2023/10/02 09:43:20;;;;;;;35.78;19.77;;;19.50;99.90;;;;;;4987769;28;20058;-84
2023/10/02 09:45:48;;;;;;;36.42;21.75;;;19.60;99.90;;;;;;4973399;28;20398;-83
2023/10/02 09:51:10;;;;;;;32.45;20.75;;;19.70;99.90;;;;;;4985848;28;20049;-83
2023/10/02 09:53:41;;;;;;;34.17;20.15;;;19.70;99.90;;;;;;4990026;28;20116;-83
2023/10/02 09:56:14;;;;;;;35.85;20.92;;;19.70;99.90;;;;;;4985751;28;20394;-83
2023/10/02 09:58:49;;;;;;;38.35;21.40;;;19.80;99.90;;;;;;4982288;28;20106;-83
2023/10/02 10:03:53;;;;;;;37.53;21.85;;;19.80;99.90;;;;;;4992710;28;20053;-83
2023/10/02 10:06:27;;;;;;;35.40;21.20;;;19.70;99.90;;;;;;4991389;28;20117;-82
2023/10/02 10:12:21;;;;;;;42.17;23.00;;;19.60;99.90;;;;;;4994340;28;20390;-83
2023/10/02 10:14:39;;;;;;;39.35;22.73;;;19.50;99.90;;;;;;4992390;28;20141;-83
2023/10/02 10:17:28;;;;;;;38.42;22.60;;;19.50;99.90;;;;;;4976505;28;20047;-83
2023/10/02 10:20:39;;;;;;;37.55;23.67;;;19.50;99.90;;;;;;4986869;28;20483;-84
2023/10/02 10:22:39;;;;;;;38.13;22.85;;;19.60;99.90;;;;;;4983086;28;20053;-83
2023/10/02 10:25:32;;;;;;;39.90;23.55;;;19.60;99.90;;;;;;4983310;28;20034;-84
2023/10/02 10:28:00;;;;;;;40.80;23.55;;;19.80;99.90;;;;;;4968546;28;20042;-84
2023/10/02 10:33:13;;;;;;;43.72;24.73;;;20.00;99.90;;;;;;4972846;28;20055;-82
2023/10/02 10:35:41;;;;;;;39.78;23.17;;;20.10;99.90;;;;;;4954828;28;20043;-83
2023/10/02 10:38:44;;;;;;;39.55;22.23;;;20.00;99.90;;;;;;4968786;28;20405;-82
2023/10/02 10:41:27;;;;;;;38.28;22.75;;;20.00;99.90;;;;;;4949160;28;20395;-82
2023/10/02 10:43:56;;;;;;;44.35;23.95;;;19.90;99.90;;;;;;4972832;28;20050;-82
2023/10/02 10:46:28;;;;;;;40.15;22.88;;;19.90;99.90;;;;;;4958137;28;20096;-82
2023/10/02 10:49:08;;;;;;;38.90;21.38;;;20.00;99.90;;;;;;4973802;28;20038;-83
2023/10/02 10:51:35;;;;;;;38.25;21.00;;;20.20;99.90;;;;;;4962949;28;20553;-83
2023/10/02 10:54:19;;;;;;;40.05;21.15;;;20.30;99.90;;;;;;4973216;28;20073;-83
2023/10/02 10:56:45;;;;;;;35.75;20.38;;;20.40;99.90;;;;;;4942988;28;20461;-82
2023/10/02 10:59:12;;;;;;;37.35;21.23;;;20.50;99.90;;;;;;4974039;28;20038;-81
2023/10/02 11:02:13;;;;;;;34.83;20.85;;;20.70;99.90;;;;;;4973209;28;20142;-83
2023/10/02 11:04:49;;;;;;;37.35;20.88;;;20.80;99.90;;;;;;4948609;28;20045;-82
2023/10/02 11:07:19;;;;;;;37.33;20.63;;;20.90;99.90;;;;;;4973204;28;20039;-83
2023/10/02 11:12:56;;;;;;;32.45;20.15;;;20.90;99.90;;;;;;4972832;28;20061;-82
2023/10/02 11:15:54;;;;;;;31.38;19.80;;;20.90;99.90;;;;;;4956035;28;20050;-82
2023/10/02 11:18:21;;;;;;;35.88;20.77;;;20.80;99.90;;;;;;4972668;28;20574;-83
2023/10/02 11:20:55;;;;;;;33.17;20.23;;;20.70;99.90;;;;;;4956511;28;20511;-83
2023/10/02 11:23:37;;;;;;;34.05;19.75;;;20.70;99.90;;;;;;4957344;28;20125;-82
2023/10/02 11:26:08;;;;;;;34.05;19.00;;;20.60;99.90;;;;;;4972284;28;20068;-82
2023/10/02 11:28:38;;;;;;;34.88;20.15;;;20.60;99.90;;;;;;4956623;28;20119;-83
2023/10/02 11:31:29;;;;;;;36.30;20.75;;;20.50;99.90;;;;;;4971969;28;20496;-83
2023/10/02 11:34:06;;;;;;;35.00;20.52;;;20.60;99.90;;;;;;4969431;28;20054;-82
2023/10/02 11:36:35;;;;;;;36.05;20.33;;;20.50;99.90;;;;;;4971244;28;20047;-83
2023/10/02 11:39:19;;;;;;;36.20;20.15;;;20.60;99.90;;;;;;4968738;28;20118;-82
2023/10/02 11:41:48;;;;;;;34.78;21.17;;;20.60;99.90;;;;;;4966560;28;20039;-82
2023/10/02 11:44:14;;;;;;;35.53;20.95;;;20.70;99.90;;;;;;4967544;28;20475;-82
2023/10/02 11:46:41;;;;;;;38.80;20.30;;;20.70;99.90;;;;;;4955710;28;20375;-82
2023/10/02 11:49:08;;;;;;;46.90;22.17;;;20.70;99.90;;;;;;4968652;28;20496;-83
2023/10/02 11:51:33;;;;;;;33.83;20.08;;;20.60;99.90;;;;;;4956069;28;20508;-82
2023/10/02 11:54:05;;;;;;;38.80;21.38;;;20.70;99.90;;;;;;4969298;28;20042;-82
2023/10/02 11:56:31;;;;;;;82.57;25.45;;;20.70;99.90;;;;;;4954021;28;20043;-82
2023/10/02 11:58:58;;;;;;;42.63;21.70;;;20.80;99.90;;;;;;4956491;28;20072;-83
2023/10/02 12:01:26;;;;;;;36.17;20.85;;;20.80;99.90;;;;;;4956046;28;20046;-83
2023/10/02 12:03:59;;;;;;;33.28;20.80;;;20.80;99.90;;;;;;4968300;28;20074;-82
2023/10/02 12:06:26;;;;;;;34.72;20.35;;;20.80;99.90;;;;;;4965927;28;20089;-82
2023/10/02 12:08:54;;;;;;;33.17;20.02;;;20.80;99.90;;;;;;4933880;28;20545;-82
2023/10/02 12:11:20;;;;;;;35.20;21.52;;;20.80;99.90;;;;;;4967152;28;20042;-82
2023/10/02 12:13:47;;;;;;;36.63;20.63;;;20.90;99.90;;;;;;4969592;28;20097;-82
2023/10/02 12:16:12;;;;;;;32.75;20.55;;;21.00;99.90;;;;;;4953896;28;20039;-83
2023/10/02 12:18:40;;;;;;;34.30;20.95;;;21.00;99.90;;;;;;4936144;28;20087;-83
2023/10/02 12:21:12;;;;;;;34.30;21.25;;;21.00;99.90;;;;;;4970182;28;20043;-82
2023/10/02 12:23:43;;;;;;;33.88;20.27;;;21.10;99.90;;;;;;4952641;28;20031;-82
2023/10/02 12:26:20;;;;;;;32.78;20.80;;;21.00;99.90;;;;;;4957186;28;20261;-83
2023/10/02 12:28:47;;;;;;;33.22;20.92;;;21.00;99.90;;;;;;4972082;28;20074;-83
2023/10/02 12:31:19;;;;;;;33.45;21.20;;;21.00;99.90;;;;;;4954289;28;20097;-83
2023/10/02 12:33:46;;;;;;;34.95;21.23;;;20.90;99.90;;;;;;4971546;28;20058;-82
2023/10/02 12:36:23;;;;;;;33.15;20.50;;;20.90;99.90;;;;;;4939836;28;20062;-82
2023/10/02 12:38:50;;;;;;;34.45;20.48;;;20.90;99.90;;;;;;4972223;28;20097;-81
2023/10/02 12:41:23;;;;;;;35.83;20.35;;;20.80;99.90;;;;;;4926876;28;20043;-82
2023/10/02 12:43:56;;;;;;;36.75;21.52;;;20.90;99.90;;;;;;4949839;29;20043;-82
2023/10/02 12:46:29;;;;;;;32.53;22.02;;;20.90;99.90;;;;;;4970231;28;20766;-81
2023/10/02 12:49:01;;;;;;;34.85;21.40;;;20.80;99.90;;;;;;4972053;28;20039;-82
2023/10/02 12:51:28;;;;;;;38.78;21.08;;;20.80;99.90;;;;;;4935567;28;20038;-83
2023/10/02 12:53:54;;;;;;;35.85;22.10;;;20.80;99.90;;;;;;4954456;28;20053;-82
2023/10/02 12:56:22;;;;;;;36.53;21.15;;;20.80;99.90;;;;;;4971427;28;20043;-83
2023/10/02 12:58:54;;;;;;;31.52;19.77;;;20.90;99.90;;;;;;4971691;28;20444;-82
2023/10/02 13:01:27;;;;;;;32.33;20.17;;;21.00;99.90;;;;;;4968863;28;20079;-83
2023/10/02 13:03:54;;;;;;;30.83;20.27;;;21.10;99.90;;;;;;4971866;28;20551;-82
2023/10/02 13:06:22;;;;;;;32.28;19.98;;;21.10;99.90;;;;;;4983637;28;20073;-83
2023/10/02 13:08:48;;;;;;;29.98;19.25;;;21.10;99.90;;;;;;4955674;28;20054;-83
2023/10/02 13:11:19;;;;;;;32.80;22.17;;;21.10;99.90;;;;;;4971557;28;20049;-82
2023/10/02 13:13:47;;;;;;;33.60;21.45;;;21.10;99.90;;;;;;4967623;28;20046;-83
2023/10/02 13:16:13;;;;;;;34.83;21.25;;;21.10;99.90;;;;;;4971999;28;20561;-83
2023/10/02 13:18:40;;;;;;;36.00;20.58;;;21.10;99.90;;;;;;4972155;28;20426;-83
2023/10/02 13:21:10;;;;;;;30.95;19.23;;;21.10;99.90;;;;;;4955487;28;20066;-83
2023/10/02 13:23:36;;;;;;;32.85;19.80;;;21.20;99.90;;;;;;4955446;28;20491;-83
2023/10/02 13:26:10;;;;;;;31.83;19.95;;;21.10;99.90;;;;;;4968342;28;20051;-83
2023/10/02 13:28:37;;;;;;;28.25;17.85;;;21.20;99.90;;;;;;4967624;28;20487;-83
2023/10/02 13:31:13;;;;;;;32.88;18.50;;;21.20;99.90;;;;;;4953666;28;20039;-82
2023/10/02 13:33:52;;;;;;;31.45;18.80;;;21.20;99.90;;;;;;4968414;28;20094;-82
2023/10/02 13:36:27;;;;;;;27.88;16.80;;;21.20;99.90;;;;;;4947134;28;20070;-82
2023/10/02 13:38:56;;;;;;;25.63;15.75;;;21.30;99.90;;;;;;4958417;28;20094;-83
2023/10/02 13:41:23;;;;;;;23.98;14.98;;;21.30;99.90;;;;;;4974960;28;20055;-83
2023/10/02 13:43:49;;;;;;;26.23;14.93;;;21.30;99.90;;;;;;4974838;28;20078;-83
2023/10/02 13:46:20;;;;;;;23.50;14.23;;;21.40;99.90;;;;;;4956485;28;20078;-83
2023/10/02 13:48:47;;;;;;;;;;;21.40;99.90;;;;;;4946305;29;20040;-82
2023/10/02 13:51:16;;;;;;;25.00;14.70;;;21.40;99.90;;;;;;4954644;28;19930;-83
2023/10/02 13:53:42;;;;;;;26.00;13.52;;;21.50;99.90;;;;;;4945623;29;20050;-83
2023/10/02 13:56:10;;;;;;;26.73;15.80;;;21.60;99.90;;;;;;4943819;28;20043;-83
2023/10/02 13:58:40;;;;;;;22.08;13.70;;;21.60;99.90;;;;;;4958713;28;20045;-83